Time,TemperatureF,DewpointF,PressureIn,WindDirection,WindDirectionDegrees,WindSpeedMPH,WindSpeedGustMPH,Humidity,HourlyPrecipIn,Conditions,Clouds,dailyrainin,SoftwareType,DateUTC
2013-01-23 00:00:00,32.8,25.4,30.23,NW,311,0.0,1.0,74,0.00,,SCT070,0.00,VWS V14.01,2013-01-23 05:00:00,
2013-01-23 00:07:00,33.2,26.1,30.23,NW,311,0.0,0.0,75,0.00,,CLR,0.00,VWS V14.01,2013-01-23 05:07:00,
2013-01-23 00:12:00,33.3,26.9,30.23,NW,311,0.0,0.0,77,0.00,,CLR,0.00,VWS V14.01,2013-01-23 05:12:00,
2013-01-23 00:15:00,33.4,25.4,30.23,NW,311,0.0,0.0,72,0.00,,SCT070,0.00,VWS V14.01,2013-01-23 05:15:00,
2013-01-23 00:17:00,33.3,26.9,30.23,NW,311,0.0,0.0,77,0.00,,CLR,0.00,VWS V14.01,2013-01-23 05:17:00,
2013-01-23 00:22:00,33.2,26.8,30.23,NW,311,0.0,0.0,77,0.00,,CLR,0.00,VWS V14.01,2013-01-23 05:22:00,
2013-01-23 00:27:00,33.1,26.7,30.23,NW,311,0.0,0.0,77,0.00,,CLR,0.00,VWS V14.01,2013-01-23 05:27:00,
2013-01-23 00:30:00,34.1,25.0,30.23,NW,311,0.0,0.0,69,0.00,,SCT070,0.00,VWS V14.01,2013-01-23 05:30:00,
2013-01-23 00:32:00,33.0,26.3,30.23,NW,311,0.0,0.0,76,0.00,,CLR,0.00,VWS V14.01,2013-01-23 05:32:00,
2013-01-23 00:37:00,32.9,25.9,30.23,NW,311,0.0,0.0,75,0.00,,CLR,0.00,VWS V14.01,2013-01-23 05:37:00,
2013-01-23 00:42:00,32.8,26.1,30.23,NW,311,0.0,0.0,76,0.00,,CLR,0.00,VWS V14.01,2013-01-23 05:42:00,
2013-01-23 00:45:00,34.7,24.5,30.24,NW,311,0.0,2.0,66,0.00,,SCT070,0.00,VWS V14.01,2013-01-23 05:45:00,
2013-01-23 00:52:00,32.7,26.0,30.23,NW,311,0.0,1.0,76,0.00,,CLR,0.00,VWS V14.01,2013-01-23 05:52:00,
2013-01-23 00:57:00,32.8,25.4,30.23,NW,311,0.0,1.0,74,0.00,,CLR,0.00,VWS V14.01,2013-01-23 05:57:00,
2013-01-23 01:00:00,35.2,24.3,30.24,NW,311,0.0,2.0,64,0.00,,SCT070,0.00,VWS V14.01,2013-01-23 06:00:00,
2013-01-23 01:07:00,33.0,25.3,30.23,NW,311,0.0,0.0,73,0.00,,CLR,0.00,VWS V14.01,2013-01-23 06:07:00,
2013-01-23 01:12:00,33.2,25.2,30.23,NW,311,0.0,0.0,72,0.00,,CLR,0.00,VWS V14.01,2013-01-23 06:12:00,
2013-01-23 01:15:00,35.8,24.5,30.24,NW,311,0.0,2.0,63,0.00,,SCT070,0.00,VWS V14.01,2013-01-23 06:15:00,
2013-01-23 01:22:00,33.7,25.0,30.23,NW,311,0.0,0.0,70,0.00,,CLR,0.00,VWS V14.01,2013-01-23 06:22:00,
2013-01-23 01:27:00,33.9,25.2,30.23,NW,311,0.0,0.0,70,0.00,,CLR,0.00,VWS V14.01,2013-01-23 06:27:00,
2013-01-23 01:30:00,35.7,24.0,30.24,NW,311,0.0,1.0,62,0.00,,SCT070,0.00,VWS V14.01,2013-01-23 06:30:00,
2013-01-23 01:32:00,34.1,25.0,30.23,NW,311,0.0,0.0,69,0.00,,CLR,0.00,VWS V14.01,2013-01-23 06:32:00,
2013-01-23 01:37:00,34.4,25.0,30.24,NW,311,0.0,1.0,68,0.00,,CLR,0.00,VWS V14.01,2013-01-23 06:37:00,
2013-01-23 01:42:00,34.4,24.6,30.24,NW,311,0.0,2.0,67,0.00,,CLR,0.00,VWS V14.01,2013-01-23 06:42:00,
2013-01-23 01:45:00,36.0,23.9,30.24,NW,311,0.0,1.0,61,0.00,,SCT070,0.00,VWS V14.01,2013-01-23 06:45:00,
2013-01-23 01:47:00,34.8,24.6,30.24,NW,311,0.0,0.0,66,0.00,,CLR,0.00,VWS V14.01,2013-01-23 06:47:00,
2013-01-23 01:52:00,35.0,24.4,30.24,NW,311,0.0,1.0,65,0.00,,CLR,0.00,VWS V14.01,2013-01-23 06:52:00,
2013-01-23 01:57:00,35.2,24.6,30.24,NW,311,0.0,2.0,65,0.00,,CLR,0.00,VWS V14.01,2013-01-23 06:57:00,
2013-01-23 02:00:00,35.4,23.7,30.25,NW,311,0.0,0.0,62,0.00,,SCT070,0.00,VWS V14.01,2013-01-23 07:00:00,
2013-01-23 02:07:00,35.5,24.2,30.24,NW,311,0.0,2.0,63,0.00,,CLR,0.00,VWS V14.01,2013-01-23 07:07:00,
2013-01-23 02:12:00,35.7,24.4,30.24,NW,311,1.0,2.0,63,0.00,,CLR,0.00,VWS V14.01,2013-01-23 07:12:00,
2013-01-23 02:15:00,34.6,22.9,30.25,NW,311,0.0,0.0,62,0.00,,SCT070,0.00,VWS V14.01,2013-01-23 07:15:00,
2013-01-23 02:17:00,35.8,24.5,30.24,NW,311,0.0,1.0,63,0.00,,CLR,0.00,VWS V14.01,2013-01-23 07:17:00,
2013-01-23 02:22:00,35.8,24.1,30.24,NW,311,0.0,1.0,62,0.00,,CLR,0.00,VWS V14.01,2013-01-23 07:22:00,
2013-01-23 02:27:00,35.7,24.0,30.24,NW,311,0.0,1.0,62,0.00,,CLR,0.00,VWS V14.01,2013-01-23 07:27:00,
2013-01-23 02:30:00,34.3,23.4,30.25,NW,311,0.0,0.0,64,0.00,,SCT070,0.00,VWS V14.01,2013-01-23 07:30:00,
2013-01-23 02:37:00,35.9,23.8,30.24,NW,311,0.0,1.0,61,0.00,,CLR,0.00,VWS V14.01,2013-01-23 07:37:00,
2013-01-23 02:42:00,36.0,23.9,30.24,NW,311,0.0,1.0,61,0.00,,CLR,0.00,VWS V14.01,2013-01-23 07:42:00,
2013-01-23 02:45:00,33.6,23.5,30.26,NW,311,0.0,0.0,66,0.00,,SCT070,0.00,VWS V14.01,2013-01-23 07:45:00,
2013-01-23 02:52:00,35.9,23.8,30.24,NW,311,0.0,0.0,61,0.00,,CLR,0.00,VWS V14.01,2013-01-23 07:52:00,
2013-01-23 02:57:00,35.6,23.9,30.25,NW,311,0.0,0.0,62,0.00,,CLR,0.00,VWS V14.01,2013-01-23 07:57:00,
2013-01-23 03:00:00,33.0,23.2,30.26,NW,311,0.0,0.0,67,0.00,,SCT070,0.00,VWS V14.01,2013-01-23 08:00:00,
2013-01-23 03:07:00,35.0,23.7,30.25,NW,311,0.0,0.0,63,0.00,,CLR,0.00,VWS V14.01,2013-01-23 08:07:00,
2013-01-23 03:12:00,34.8,23.1,30.25,NW,311,0.0,0.0,62,0.00,,CLR,0.00,VWS V14.01,2013-01-23 08:12:00,
2013-01-23 03:15:00,32.3,23.3,30.26,NW,311,0.0,0.0,69,0.00,,SCT070,0.00,VWS V14.01,2013-01-23 08:15:00,
2013-01-23 03:17:00,34.5,23.2,30.25,NW,311,0.0,0.0,63,0.00,,CLR,0.00,VWS V14.01,2013-01-23 08:17:00,
2013-01-23 03:22:00,34.4,23.1,30.25,NW,311,0.0,0.0,63,0.00,,CLR,0.00,VWS V14.01,2013-01-23 08:22:00,
2013-01-23 03:27:00,34.4,23.5,30.25,NW,311,0.0,0.0,64,0.00,,CLR,0.00,VWS V14.01,2013-01-23 08:27:00,
2013-01-23 03:30:00,31.8,23.5,30.26,NW,311,0.0,0.0,71,0.00,,SCT070,0.00,VWS V14.01,2013-01-23 08:30:00,
2013-01-23 03:37:00,33.9,23.4,30.25,NW,311,0.0,0.0,65,0.00,,CLR,0.00,VWS V14.01,2013-01-23 08:37:00,
2013-01-23 03:42:00,33.7,23.2,30.26,NW,311,0.0,0.0,65,0.00,,CLR,0.00,VWS V14.01,2013-01-23 08:42:00,
2013-01-23 03:45:00,32.3,23.6,30.26,NW,311,0.0,1.0,70,0.00,,SCT070,0.00,VWS V14.01,2013-01-23 08:45:00,
2013-01-23 03:52:00,33.3,23.9,30.26,NW,311,0.0,0.0,68,0.00,,CLR,0.00,VWS V14.01,2013-01-23 08:52:00,
2013-01-23 03:57:00,33.1,23.7,30.26,NW,311,0.0,0.0,68,0.00,,CLR,0.00,VWS V14.01,2013-01-23 08:57:00,
2013-01-23 04:00:00,31.7,24.0,30.26,NW,311,0.0,0.0,73,0.00,,SCT070,0.00,VWS V14.01,2013-01-23 09:00:00,
2013-01-23 04:02:00,32.9,23.9,30.26,NW,311,0.0,0.0,69,0.00,,CLR,0.00,VWS V14.01,2013-01-23 09:02:00,
2013-01-23 04:07:00,32.6,23.6,30.25,NW,311,0.0,0.0,69,0.00,,CLR,0.00,VWS V14.01,2013-01-23 09:07:00,
2013-01-23 04:12:00,32.4,23.4,30.26,NW,311,0.0,0.0,69,0.00,,CLR,0.00,VWS V14.01,2013-01-23 09:12:00,
2013-01-23 04:15:00,30.9,23.3,30.27,NW,311,0.0,0.0,73,0.00,,SCT070,0.00,VWS V14.01,2013-01-23 09:15:00,
2013-01-23 04:22:00,32.0,23.7,30.25,NW,311,0.0,0.0,71,0.00,,CLR,0.00,VWS V14.01,2013-01-23 09:22:00,
2013-01-23 04:27:00,31.8,23.5,30.26,NW,311,0.0,0.0,71,0.00,,CLR,0.00,VWS V14.01,2013-01-23 09:27:00,
2013-01-23 04:30:00,30.2,23.2,30.27,NW,311,0.0,0.0,75,0.00,,SCT070,0.00,VWS V14.01,2013-01-23 09:30:00,
2013-01-23 04:37:00,32.0,23.0,30.26,NW,311,0.0,0.0,69,0.00,,CLR,0.00,VWS V14.01,2013-01-23 09:37:00,
2013-01-23 04:42:00,32.2,22.8,30.26,NW,311,0.0,1.0,68,0.00,,CLR,0.00,VWS V14.01,2013-01-23 09:42:00,
2013-01-23 04:45:00,29.8,22.5,30.28,NW,311,0.0,1.0,74,0.00,,SCT070,0.00,VWS V14.01,2013-01-23 09:45:00,
2013-01-23 04:52:00,32.3,23.6,30.26,NW,311,0.0,0.0,70,0.00,,CLR,0.00,VWS V14.01,2013-01-23 09:52:00,
2013-01-23 04:57:00,32.0,24.3,30.26,NW,311,0.0,0.0,73,0.00,,CLR,0.00,VWS V14.01,2013-01-23 09:57:00,
2013-01-23 05:00:00,30.6,21.6,30.28,NW,316,0.0,1.0,69,0.00,,SCT070,0.00,VWS V14.01,2013-01-23 10:00:00,
2013-01-23 05:07:00,31.2,23.6,30.26,NW,311,0.0,0.0,73,0.00,,CLR,0.00,VWS V14.01,2013-01-23 10:07:00,
2013-01-23 05:15:00,30.9,23.3,30.27,NW,311,0.0,0.0,73,0.00,,CLR,0.00,VWS V14.01,2013-01-23 10:15:00,
2013-01-23 05:22:00,30.5,23.5,30.27,NW,311,0.0,0.0,75,0.00,,CLR,0.00,VWS V14.01,2013-01-23 10:22:00,
2013-01-23 05:27:00,30.3,23.3,30.27,NW,311,0.0,0.0,75,0.00,,CLR,0.00,VWS V14.01,2013-01-23 10:27:00,
2013-01-23 05:30:00,30.6,21.3,30.30,NW,316,0.0,1.0,68,0.00,,SCT070,0.00,VWS V14.01,2013-01-23 10:30:00,
2013-01-23 05:37:00,30.0,23.4,30.27,NW,311,0.0,0.0,76,0.00,,CLR,0.00,VWS V14.01,2013-01-23 10:37:00,
2013-01-23 05:42:00,29.8,22.9,30.27,NW,311,0.0,1.0,75,0.00,,CLR,0.00,VWS V14.01,2013-01-23 10:42:00,
2013-01-23 05:45:00,30.7,19.6,30.30,NW,316,0.0,0.0,63,0.00,,SCT070,0.00,VWS V14.01,2013-01-23 10:45:00,
2013-01-23 05:52:00,30.0,21.8,30.28,NW,317,0.0,1.0,71,0.00,,CLR,0.00,VWS V14.01,2013-01-23 10:52:00,
2013-01-23 05:57:00,30.4,21.5,30.28,NW,316,0.0,1.0,69,0.00,,CLR,0.00,VWS V14.01,2013-01-23 10:57:00,
2013-01-23 06:00:00,30.9,19.0,30.30,NW,317,0.0,0.0,61,0.00,,SCT070,0.00,VWS V14.01,2013-01-23 11:00:00,
2013-01-23 06:07:00,30.8,21.5,30.28,NW,316,0.0,0.0,68,0.00,,CLR,0.00,VWS V14.01,2013-01-23 11:07:00,
2013-01-23 06:12:00,30.8,21.1,30.28,NW,316,0.0,0.0,67,0.00,,CLR,0.00,VWS V14.01,2013-01-23 11:12:00,
2013-01-23 06:15:00,31.0,19.1,30.31,NW,317,0.0,0.0,61,0.00,,SCT070,0.00,VWS V14.01,2013-01-23 11:15:00,
2013-01-23 06:17:00,30.8,21.5,30.29,NW,315,0.0,1.0,68,0.00,,CLR,0.00,VWS V14.01,2013-01-23 11:17:00,
2013-01-23 06:22:00,30.8,21.9,30.29,NW,315,0.0,1.0,69,0.00,,CLR,0.00,VWS V14.01,2013-01-23 11:22:00,
2013-01-23 06:27:00,30.7,21.4,30.30,NW,316,0.0,1.0,68,0.00,,CLR,0.00,VWS V14.01,2013-01-23 11:27:00,
2013-01-23 06:30:00,30.8,19.0,30.32,NW,315,0.0,0.0,61,0.00,,SCT070,0.00,VWS V14.01,2013-01-23 11:30:00,
2013-01-23 06:37:00,30.6,20.2,30.30,NW,317,0.0,0.0,65,0.00,,CLR,0.00,VWS V14.01,2013-01-23 11:37:00,
2013-01-23 06:42:00,30.7,20.0,30.30,NW,317,0.0,0.0,64,0.00,,CLR,0.00,VWS V14.01,2013-01-23 11:42:00,
2013-01-23 06:45:00,30.6,19.5,30.32,NW,316,0.0,0.0,63,0.00,,SCT070,0.00,VWS V14.01,2013-01-23 11:45:00,
2013-01-23 06:52:00,30.8,19.7,30.30,NW,316,0.0,0.0,63,0.00,,CLR,0.00,VWS V14.01,2013-01-23 11:52:00,
2013-01-23 06:57:00,30.9,19.0,30.30,NW,316,0.0,0.0,61,0.00,,CLR,0.00,VWS V14.01,2013-01-23 11:57:00,
2013-01-23 07:00:00,30.6,19.1,30.33,NW,316,0.0,1.0,62,0.00,,SCT070,0.00,VWS V14.01,2013-01-23 12:00:00,
2013-01-23 07:07:00,31.0,18.8,30.31,NW,315,0.0,0.0,60,0.00,,,0.00,VWS V14.01,2013-01-23 12:07:00,
2013-01-23 07:12:00,31.0,19.1,30.31,NW,317,0.0,0.0,61,0.00,,,0.00,VWS V14.01,2013-01-23 12:12:00,
2013-01-23 07:15:00,31.2,19.0,30.33,NW,315,0.0,1.0,60,0.00,,SCT070,0.00,VWS V14.01,2013-01-23 12:15:00,
2013-01-23 07:22:00,30.9,18.7,30.31,NW,316,0.0,0.0,60,0.00,,,0.00,VWS V14.01,2013-01-23 12:22:00,
2013-01-23 07:30:00,30.8,19.0,30.32,NW,315,0.0,0.0,61,0.00,,,0.00,VWS V14.01,2013-01-23 12:30:00,
2013-01-23 07:37:00,30.6,19.1,30.32,NW,316,0.0,0.0,62,0.00,,,0.00,VWS V14.01,2013-01-23 12:37:00,
2013-01-23 07:45:00,30.6,19.5,30.32,NW,316,0.0,0.0,63,0.00,,,0.00,VWS V14.01,2013-01-23 12:45:00,
2013-01-23 07:52:00,30.6,19.5,30.32,NW,315,0.0,1.0,63,0.00,,,0.00,VWS V14.01,2013-01-23 12:52:00,
2013-01-23 07:57:00,30.6,19.1,30.32,NW,316,0.0,1.0,62,0.00,,,0.00,VWS V14.01,2013-01-23 12:57:00,
2013-01-23 08:00:00,32.8,18.0,30.35,NNE,24,0.0,2.0,54,0.00,,SCT070,0.00,VWS V14.01,2013-01-23 13:00:00,
2013-01-23 08:02:00,30.6,19.1,30.33,NW,317,0.0,0.0,62,0.00,,CLR,0.00,VWS V14.01,2013-01-23 13:02:00,
2013-01-23 08:12:00,31.0,19.1,30.33,NW,315,0.0,0.0,61,0.00,,CLR,0.00,VWS V14.01,2013-01-23 13:12:00,
2013-01-23 08:15:00,33.5,19.1,30.35,NNE,24,0.0,1.0,55,0.00,,SCT070,0.00,VWS V14.01,2013-01-23 13:15:00,
2013-01-23 08:17:00,31.4,18.7,30.33,NW,317,0.0,1.0,59,0.00,,CLR,0.00,VWS V14.01,2013-01-23 13:17:00,
2013-01-23 08:22:00,31.7,18.6,30.33,NNE,21,0.0,4.0,58,0.00,,CLR,0.00,VWS V14.01,2013-01-23 13:22:00,
2013-01-23 08:30:00,31.9,18.0,30.33,NNE,24,0.0,4.0,56,0.00,,CLR,0.00,VWS V14.01,2013-01-23 13:30:00,
2013-01-23 08:37:00,32.1,18.6,30.33,NNE,24,0.0,1.0,57,0.00,,CLR,0.00,VWS V14.01,2013-01-23 13:37:00,
2013-01-23 08:42:00,32.3,19.2,30.34,NNE,24,0.0,1.0,58,0.00,,CLR,0.00,VWS V14.01,2013-01-23 13:42:00,
2013-01-23 08:45:00,34.6,19.2,30.35,NNE,24,0.0,1.0,53,0.00,,SCT070,0.00,VWS V14.01,2013-01-23 13:45:00,
2013-01-23 08:52:00,32.5,17.7,30.35,NNE,24,0.0,2.0,54,0.00,,CLR,0.00,VWS V14.01,2013-01-23 13:52:00,
2013-01-23 08:57:00,32.7,18.3,30.35,NNE,24,0.0,2.0,55,0.00,,CLR,0.00,VWS V14.01,2013-01-23 13:57:00,
2013-01-23 09:00:00,35.3,19.5,30.35,NE,37,0.0,2.0,52,0.00,,SCT070,0.00,VWS V14.01,2013-01-23 14:00:00,
2013-01-23 09:06:00,33.0,18.6,30.35,NNE,24,0.0,1.0,55,0.00,,CLR,0.00,VWS V14.01,2013-01-23 14:06:00,
2013-01-23 09:11:00,33.3,19.3,30.35,NNE,24,0.0,1.0,56,0.00,,CLR,0.00,VWS V14.01,2013-01-23 14:11:00,
2013-01-23 09:15:00,36.1,20.2,30.35,NE,50,0.0,2.0,52,0.00,,SCT070,0.00,VWS V14.01,2013-01-23 14:15:00,
2013-01-23 09:21:00,34.1,19.2,30.35,NNE,24,0.0,2.0,54,0.00,,CLR,0.00,VWS V14.01,2013-01-23 14:21:00,
2013-01-23 09:26:00,34.3,19.4,30.35,NNE,24,0.0,2.0,54,0.00,,CLR,0.00,VWS V14.01,2013-01-23 14:26:00,
2013-01-23 09:30:00,37.0,20.1,30.35,ENE,71,0.0,2.0,50,0.00,,SCT070,0.00,VWS V14.01,2013-01-23 14:30:00,
2013-01-23 09:36:00,34.4,19.5,30.34,NNE,24,0.0,1.0,54,0.00,,CLR,0.00,VWS V14.01,2013-01-23 14:36:00,
2013-01-23 09:41:00,34.4,20.3,30.35,NNE,24,0.0,1.0,56,0.00,,CLR,0.00,VWS V14.01,2013-01-23 14:41:00,
2013-01-23 09:45:00,38.2,20.2,30.35,ENE,71,0.0,1.0,48,0.00,,SCT070,0.00,VWS V14.01,2013-01-23 14:45:00,
2013-01-23 09:51:00,34.9,19.5,30.35,NNE,24,0.0,1.0,53,0.00,,CLR,0.00,VWS V14.01,2013-01-23 14:51:00,
2013-01-23 09:56:00,35.2,19.4,30.35,NE,36,0.0,2.0,52,0.00,,CLR,0.00,VWS V14.01,2013-01-23 14:56:00,
2013-01-23 10:00:00,38.9,20.4,30.34,NNE,30,0.0,2.0,47,0.00,,SCT070,0.00,VWS V14.01,2013-01-23 15:00:00,
2013-01-23 10:06:00,35.6,19.7,30.35,NE,38,0.0,1.0,52,0.00,,CLR,0.00,VWS V14.01,2013-01-23 15:06:00,
2013-01-23 10:15:00,36.1,20.2,30.35,NE,50,0.0,2.0,52,0.00,,CLR,0.00,VWS V14.01,2013-01-23 15:15:00,
2013-01-23 10:21:00,36.4,19.5,30.35,NE,50,0.0,1.0,50,0.00,,CLR,0.00,VWS V14.01,2013-01-23 15:21:00,
2013-01-23 10:30:00,37.0,20.1,30.35,ENE,71,0.0,2.0,50,0.00,,CLR,0.00,VWS V14.01,2013-01-23 15:30:00,
2013-01-23 10:35:00,37.3,20.4,30.35,ENE,71,0.0,1.0,50,0.00,,CLR,0.00,VWS V14.01,2013-01-23 15:35:00,
2013-01-23 10:45:00,38.2,20.2,30.35,ENE,71,0.0,1.0,48,0.00,,CLR,0.00,VWS V14.01,2013-01-23 15:45:00,
2013-01-23 10:50:00,38.1,20.2,30.34,NW,309,0.0,2.0,48,0.00,,CLR,0.00,VWS V14.01,2013-01-23 15:50:00,
2013-01-23 10:55:00,38.3,19.9,30.34,North,351,0.0,2.0,47,0.00,,CLR,0.00,VWS V14.01,2013-01-23 15:55:00,
2013-01-23 11:00:00,39.0,20.5,30.34,NNE,31,0.0,0.0,47,0.00,,CLR,0.00,VWS V14.01,2013-01-23 16:00:00,
2013-01-23 11:10:00,39.7,20.6,30.34,NE,40,0.0,1.0,46,0.00,,,0.00,VWS V14.01,2013-01-23 16:10:00,
2013-01-23 11:15:00,40.0,20.9,30.34,NE,40,0.0,0.0,46,0.00,,,0.00,VWS V14.01,2013-01-23 16:15:00,
2013-01-23 11:25:00,40.9,22.2,30.33,WSW,253,0.0,2.0,47,0.00,,,0.00,VWS V14.01,2013-01-23 16:25:00,
2013-01-23 11:30:00,42.9,17.8,30.30,ENE,63,1.0,3.0,36,0.00,,SCT070,0.00,VWS V14.01,2013-01-23 16:30:00,
2013-01-23 11:35:00,41.7,22.5,30.33,WSW,253,0.0,1.0,46,0.00,,,0.00,VWS V14.01,2013-01-23 16:35:00,
2013-01-23 11:40:00,41.7,21.9,30.33,West,275,0.0,2.0,45,0.00,,,0.00,VWS V14.01,2013-01-23 16:40:00,
2013-01-23 11:45:00,43.9,18.7,30.29,NNE,15,0.0,2.0,36,0.00,,SCT070,0.00,VWS V14.01,2013-01-23 16:45:00,
2013-01-23 11:50:00,42.0,21.1,30.32,WNW,290,0.0,1.0,43,0.00,,,0.00,VWS V14.01,2013-01-23 16:50:00,
2013-01-23 11:55:00,42.1,20.7,30.32,NE,46,0.0,2.0,42,0.00,,,0.00,VWS V14.01,2013-01-23 16:55:00,
2013-01-23 12:00:00,41.7,18.0,30.32,ENE,67,0.0,4.0,38,0.00,,,0.00,VWS V14.01,2013-01-23 17:00:00,
2013-01-23 12:10:00,42.0,18.9,30.31,East,92,0.0,2.0,39,0.00,,,0.00,VWS V14.01,2013-01-23 17:10:00,
2013-01-23 12:15:00,42.3,19.1,30.31,East,92,2.0,2.0,39,0.00,,,0.00,VWS V14.01,2013-01-23 17:15:00,
2013-01-23 12:20:00,42.4,17.4,30.31,East,92,1.0,2.0,36,0.00,,,0.00,VWS V14.01,2013-01-23 17:20:00,
2013-01-23 12:30:00,42.9,17.8,30.30,ENE,64,0.0,3.0,36,0.00,,,0.00,VWS V14.01,2013-01-23 17:30:00,
2013-01-23 12:35:00,43.1,18.6,30.29,NNE,26,2.0,2.0,37,0.00,,,0.00,VWS V14.01,2013-01-23 17:35:00,
2013-01-23 12:45:00,43.9,18.7,30.29,NNE,15,1.0,2.0,36,0.00,,,0.00,VWS V14.01,2013-01-23 17:45:00,
2013-01-23 12:50:00,44.1,19.5,30.28,West,275,0.0,4.0,37,0.00,,,0.00,VWS V14.01,2013-01-23 17:50:00,
2013-01-23 13:00:00,44.5,19.9,30.27,NNE,29,1.0,4.0,37,0.00,,,0.00,VWS V14.01,2013-01-23 18:00:00,
2013-01-23 13:05:00,44.4,19.1,30.26,ENE,60,0.0,2.0,36,0.00,,CLR,0.00,VWS V14.01,2013-01-23 18:05:00,
2013-01-23 13:14:00,44.7,20.7,30.26,SSE,153,0.0,2.0,38,0.00,,CLR,0.00,VWS V14.01,2013-01-23 18:14:00,
2013-01-23 13:15:00,51.4,27.3,30.22,North,355,0.0,2.0,39,0.00,,SCT070,0.00,VWS V14.01,2013-01-23 18:15:00,
2013-01-23 13:19:00,44.7,20.7,30.26,East,84,2.0,2.0,38,0.00,,CLR,0.00,VWS V14.01,2013-01-23 18:19:00,
2013-01-23 13:29:00,45.0,23.3,30.25,WNW,303,1.0,4.0,42,0.00,,CLR,0.00,VWS V14.01,2013-01-23 18:29:00,
2013-01-23 13:30:00,51.6,27.5,30.22,East,97,1.0,4.0,39,0.00,,SCT070,0.00,VWS V14.01,2013-01-23 18:30:00,
2013-01-23 13:34:00,45.6,23.9,30.25,WNW,299,0.0,3.0,42,0.00,,CLR,0.00,VWS V14.01,2013-01-23 18:34:00,
2013-01-23 13:44:00,47.0,24.5,30.24,NNE,24,0.0,4.0,41,0.00,,CLR,0.00,VWS V14.01,2013-01-23 18:44:00,
2013-01-23 13:45:00,51.4,27.3,30.21,NW,322,0.0,4.0,39,0.00,,SCT070,0.00,VWS V14.01,2013-01-23 18:45:00,
2013-01-23 13:49:00,48.1,26.1,30.24,NNW,337,0.0,5.0,42,0.00,,CLR,0.00,VWS V14.01,2013-01-23 18:49:00,
2013-01-23 13:59:00,49.4,26.7,30.23,NNW,328,0.0,5.0,41,0.00,,CLR,0.00,VWS V14.01,2013-01-23 18:59:00,
2013-01-23 14:00:00,52.1,28.5,30.20,NNE,25,0.0,5.0,40,0.00,,SCT070,0.00,VWS V14.01,2013-01-23 19:00:00,
2013-01-23 14:04:00,50.1,27.3,30.22,NNW,327,0.0,1.0,41,0.00,,CLR,0.00,VWS V14.01,2013-01-23 19:04:00,
2013-01-23 14:14:00,51.3,27.2,30.22,North,360,0.0,2.0,39,0.00,,CLR,0.00,VWS V14.01,2013-01-23 19:14:00,
2013-01-23 14:15:00,52.5,29.5,30.20,SW,234,0.0,4.0,41,0.00,,SCT070,0.00,VWS V14.01,2013-01-23 19:15:00,
2013-01-23 14:19:00,51.3,27.2,30.22,NW,318,1.0,4.0,39,0.00,,CLR,0.00,VWS V14.01,2013-01-23 19:19:00,
2013-01-23 14:29:00,51.6,27.5,30.22,East,96,0.0,4.0,39,0.00,,CLR,0.00,VWS V14.01,2013-01-23 19:29:00,
2013-01-23 14:30:00,52.7,30.3,30.20,North,360,0.0,5.0,42,0.00,,SCT070,0.00,VWS V14.01,2013-01-23 19:30:00,
2013-01-23 14:34:00,51.7,27.6,30.21,North,5,0.0,2.0,39,0.00,,CLR,0.00,VWS V14.01,2013-01-23 19:34:00,
2013-01-23 14:44:00,51.4,27.3,30.21,NW,322,1.0,4.0,39,0.00,,CLR,0.00,VWS V14.01,2013-01-23 19:44:00,
2013-01-23 14:45:00,51.9,29.5,30.20,SSE,165,0.0,6.0,42,0.00,,SCT070,0.00,VWS V14.01,2013-01-23 19:45:00,
2013-01-23 14:49:00,51.4,27.9,30.21,NNW,334,0.0,3.0,40,0.00,,CLR,0.00,VWS V14.01,2013-01-23 19:49:00,
2013-01-23 14:59:00,52.1,28.5,30.20,NNE,25,0.0,5.0,40,0.00,,CLR,0.00,VWS V14.01,2013-01-23 19:59:00,
2013-01-23 15:00:00,51.6,31.0,30.19,NW,319,0.0,4.0,45,0.00,,SCT070,0.00,VWS V14.01,2013-01-23 20:00:00,
2013-01-23 15:04:00,52.2,28.6,30.20,NNE,14,0.0,2.0,40,0.00,,CLR,0.00,VWS V14.01,2013-01-23 20:04:00,
2013-01-23 15:14:00,52.5,29.5,30.20,SW,234,0.0,4.0,41,0.00,,CLR,0.00,VWS V14.01,2013-01-23 20:14:00,
2013-01-23 15:15:00,51.5,31.4,30.19,South,184,0.0,2.0,46,0.00,,SCT070,0.00,VWS V14.01,2013-01-23 20:15:00,
2013-01-23 15:19:00,52.6,29.6,30.20,SE,132,0.0,5.0,41,0.00,,CLR,0.00,VWS V14.01,2013-01-23 20:19:00,
2013-01-23 15:29:00,52.7,30.3,30.20,North,5,0.0,5.0,42,0.00,,CLR,0.00,VWS V14.01,2013-01-23 20:29:00,
2013-01-23 15:30:00,51.5,32.5,30.19,WNW,302,0.0,1.0,48,0.00,,SCT070,0.00,VWS V14.01,2013-01-23 20:30:00,
2013-01-23 15:34:00,52.6,30.2,30.20,SSW,194,0.0,6.0,42,0.00,,CLR,0.00,VWS V14.01,2013-01-23 20:34:00,
2013-01-23 15:39:00,52.4,29.4,30.20,SSW,212,0.0,6.0,41,0.00,,CLR,0.00,VWS V14.01,2013-01-23 20:39:00,
2013-01-23 15:45:00,51.9,29.5,30.20,SSE,165,0.0,6.0,42,0.00,,CLR,0.00,VWS V14.01,2013-01-23 20:45:00,
2013-01-23 15:54:00,51.7,29.4,30.19,NW,322,2.0,4.0,42,0.00,,CLR,0.00,VWS V14.01,2013-01-23 20:54:00,
2013-01-23 16:00:00,51.6,31.0,30.19,NW,319,0.0,4.0,45,0.00,,CLR,0.00,VWS V14.01,2013-01-23 21:00:00,
2013-01-23 16:09:00,51.5,32.0,30.19,SW,235,0.0,2.0,47,0.00,,CLR,0.00,VWS V14.01,2013-01-23 21:09:00,
2013-01-23 16:15:00,51.5,31.4,30.19,South,184,0.0,2.0,46,0.00,,CLR,0.00,VWS V14.01,2013-01-23 21:15:00,
2013-01-23 16:24:00,51.6,31.5,30.19,NW,324,0.0,1.0,46,0.00,,CLR,0.00,VWS V14.01,2013-01-23 21:24:00,
2013-01-23 16:29:00,51.5,31.4,30.19,NW,304,0.0,1.0,46,0.00,,CLR,0.00,VWS V14.01,2013-01-23 21:29:00,
2013-01-23 16:30:00,49.2,33.7,30.18,SSW,192,0.0,0.0,55,0.00,,SCT070,0.00,VWS V14.01,2013-01-23 21:30:00,
2013-01-23 16:34:00,51.5,32.5,30.19,WNW,302,0.0,1.0,48,0.00,,CLR,0.00,VWS V14.01,2013-01-23 21:34:00,
2013-01-23 16:44:00,51.4,32.4,30.18,SSE,157,0.0,1.0,48,0.00,,CLR,0.00,VWS V14.01,2013-01-23 21:44:00,
2013-01-23 16:45:00,47.7,34.1,30.18,SSW,192,0.0,0.0,59,0.00,,SCT070,0.00,VWS V14.01,2013-01-23 21:45:00,
2013-01-23 16:49:00,51.2,32.7,30.18,SW,234,2.0,6.0,49,0.00,,CLR,0.00,VWS V14.01,2013-01-23 21:49:00,
2013-01-23 16:54:00,51.2,33.2,30.18,SW,233,0.0,6.0,50,0.00,,CLR,0.00,VWS V14.01,2013-01-23 21:54:00,
2013-01-23 17:00:00,50.9,32.9,30.18,SW,234,0.0,6.0,50,0.00,,CLR,0.00,VWS V14.01,2013-01-23 22:00:00,
2013-01-23 17:09:00,50.6,32.7,30.18,SSW,193,0.0,1.0,50,0.00,,CLR,0.00,VWS V14.01,2013-01-23 22:09:00,
2013-01-23 17:15:00,50.3,33.4,30.18,SSW,192,0.0,1.0,52,0.00,,CLR,0.00,VWS V14.01,2013-01-23 22:15:00,
2013-01-23 17:23:00,49.7,34.2,30.18,SSW,193,0.0,0.0,55,0.00,,CLR,0.00,VWS V14.01,2013-01-23 22:23:00,
2013-01-23 17:30:00,49.2,33.7,30.18,SSW,192,0.0,0.0,55,0.00,,CLR,0.00,VWS V14.01,2013-01-23 22:30:00,
2013-01-23 17:38:00,48.3,34.2,30.18,SSW,193,0.0,0.0,58,0.00,,CLR,0.00,VWS V14.01,2013-01-23 22:38:00,
2013-01-23 17:43:00,47.8,34.2,30.18,SSW,193,0.0,0.0,59,0.00,,CLR,0.00,VWS V14.01,2013-01-23 22:43:00,
2013-01-23 17:45:00,42.4,33.3,30.18,SSW,192,0.0,0.0,70,0.00,,SCT070,0.00,VWS V14.01,2013-01-23 22:45:00,
2013-01-23 17:48:00,47.3,33.7,30.18,SSW,193,0.0,0.0,59,0.00,,CLR,0.00,VWS V14.01,2013-01-23 22:48:00,
2013-01-23 17:53:00,46.8,33.7,30.18,SSW,192,0.0,0.0,60,0.00,,CLR,0.00,VWS V14.01,2013-01-23 22:53:00,
2013-01-23 18:00:00,46.2,33.9,30.18,SSW,193,0.0,0.0,62,0.00,,CLR,0.00,VWS V14.01,2013-01-23 23:00:00,
2013-01-23 18:08:00,45.4,34.0,30.18,SSW,193,0.0,0.0,64,0.00,,CLR,0.00,VWS V14.01,2013-01-23 23:08:00,
2013-01-23 18:15:00,44.8,34.2,30.18,SSW,193,0.0,0.0,66,0.00,,CLR,0.00,VWS V14.01,2013-01-23 23:15:00,
2013-01-23 18:23:00,44.1,33.5,30.18,SSW,192,0.0,0.0,66,0.00,,CLR,0.00,VWS V14.01,2013-01-23 23:23:00,
2013-01-23 18:30:00,43.5,33.3,30.18,SSW,193,0.0,0.0,67,0.00,,CLR,0.00,VWS V14.01,2013-01-23 23:30:00,
2013-01-23 18:38:00,42.8,33.3,30.18,SSW,192,0.0,0.0,69,0.00,,CLR,0.00,VWS V14.01,2013-01-23 23:38:00,
2013-01-23 18:45:00,42.4,33.3,30.18,SSW,192,0.0,0.0,70,0.00,,CLR,0.00,VWS V14.01,2013-01-23 23:45:00,
2013-01-23 18:53:00,41.9,33.2,30.19,SSW,193,0.0,0.0,71,0.00,,CLR,0.00,VWS V14.01,2013-01-23 23:53:00,
2013-01-23 19:00:00,41.5,33.2,30.19,SSW,192,0.0,0.0,72,0.00,,CLR,0.00,VWS V14.01,2013-01-24 00:00:00,
2013-01-23 19:08:00,40.9,32.6,30.19,SSW,192,0.0,0.0,72,0.00,,CLR,0.00,VWS V14.01,2013-01-24 00:08:00,
2013-01-23 19:15:00,40.5,32.5,30.18,SSW,193,0.0,0.0,73,0.00,,CLR,0.00,VWS V14.01,2013-01-24 00:15:00,
2013-01-23 19:23:00,40.0,32.4,30.18,SSW,193,0.0,0.0,74,0.00,,CLR,0.00,VWS V14.01,2013-01-24 00:23:00,
2013-01-23 19:30:00,39.6,32.0,30.18,SSW,193,0.0,0.0,74,0.00,,CLR,0.00,VWS V14.01,2013-01-24 00:30:00,
2013-01-23 19:38:00,39.3,32.4,30.17,SSW,193,0.0,0.0,76,0.00,,CLR,0.00,VWS V14.01,2013-01-24 00:38:00,
2013-01-23 19:45:00,39.1,32.2,30.17,SSW,193,0.0,0.0,76,0.00,,CLR,0.00,VWS V14.01,2013-01-24 00:45:00,
2013-01-23 19:53:00,39.0,31.8,30.17,SSW,193,0.0,0.0,75,0.00,,CLR,0.00,VWS V14.01,2013-01-24 00:53:00,
2013-01-23 20:00:00,38.9,31.7,30.17,SSW,193,0.0,0.0,75,0.00,,CLR,0.00,VWS V14.01,2013-01-24 01:00:00,
2013-01-23 20:08:00,39.0,32.1,30.16,SSW,193,0.0,0.0,76,0.00,,CLR,0.00,VWS V14.01,2013-01-24 01:08:00,
2013-01-23 20:15:00,39.1,31.9,30.16,SSW,193,0.0,0.0,75,0.00,,CLR,0.00,VWS V14.01,2013-01-24 01:15:00,
2013-01-23 20:23:00,38.9,31.7,30.17,SSW,192,0.0,0.0,75,0.00,,CLR,0.00,VWS V14.01,2013-01-24 01:23:00,
2013-01-23 20:28:00,38.9,32.0,30.16,SSW,193,0.0,0.0,76,0.00,,CLR,0.00,VWS V14.01,2013-01-24 01:28:00,
2013-01-23 20:30:00,38.8,32.5,30.15,SSW,193,0.0,0.0,78,0.00,,SCT070,0.00,VWS V14.01,2013-01-24 01:30:00,
2013-01-23 20:38:00,38.8,31.6,30.16,SSW,193,0.0,0.0,75,0.00,,CLR,0.00,VWS V14.01,2013-01-24 01:38:00,
2013-01-23 20:43:00,38.7,31.8,30.15,SSW,193,0.0,0.0,76,0.00,,CLR,0.00,VWS V14.01,2013-01-24 01:43:00,
2013-01-23 20:45:00,40.0,33.1,30.15,SSW,192,0.0,0.0,76,0.00,,SCT070,0.00,VWS V14.01,2013-01-24 01:45:00,
2013-01-23 20:53:00,38.4,31.5,30.16,SSW,192,0.0,0.0,76,0.00,,CLR,0.00,VWS V14.01,2013-01-24 01:53:00,
2013-01-23 20:58:00,38.4,31.8,30.16,SSW,192,0.0,0.0,77,0.00,,CLR,0.00,VWS V14.01,2013-01-24 01:58:00,
2013-01-23 21:00:00,40.3,33.0,30.16,SSW,193,0.0,1.0,75,0.00,,SCT070,0.00,VWS V14.01,2013-01-24 02:00:00,
2013-01-23 21:07:00,38.4,31.8,30.16,SSW,193,0.0,0.0,77,0.00,,CLR,0.00,VWS V14.01,2013-01-24 02:07:00,
2013-01-23 21:12:00,38.4,31.8,30.16,SSW,193,0.0,0.0,77,0.00,,CLR,0.00,VWS V14.01,2013-01-24 02:12:00,
2013-01-23 21:15:00,40.8,33.5,30.15,SSW,193,0.0,0.0,75,0.00,,SCT070,0.00,VWS V14.01,2013-01-24 02:15:00,
2013-01-23 21:17:00,38.4,31.8,30.16,SSW,193,0.0,0.0,77,0.00,,CLR,0.00,VWS V14.01,2013-01-24 02:17:00,
2013-01-23 21:22:00,38.4,31.8,30.15,SSW,192,0.0,0.0,77,0.00,,CLR,0.00,VWS V14.01,2013-01-24 02:22:00,
2013-01-23 21:30:00,38.8,32.5,30.15,SSW,193,0.0,0.0,78,0.00,,CLR,0.00,VWS V14.01,2013-01-24 02:30:00,
2013-01-23 21:37:00,39.4,32.8,30.15,SSW,193,0.0,0.0,77,0.00,,CLR,0.00,VWS V14.01,2013-01-24 02:37:00,
2013-01-23 21:42:00,39.8,33.2,30.15,SSW,192,0.0,0.0,77,0.00,,CLR,0.00,VWS V14.01,2013-01-24 02:42:00,
2013-01-23 21:45:00,41.8,34.1,30.14,SSW,192,0.0,0.0,74,0.00,,SCT070,0.00,VWS V14.01,2013-01-24 02:45:00,
2013-01-23 21:52:00,40.2,33.2,30.15,SSW,193,0.0,0.0,76,0.00,,CLR,0.00,VWS V14.01,2013-01-24 02:52:00,
2013-01-23 21:57:00,40.2,32.9,30.16,SSW,193,0.0,0.0,75,0.00,,CLR,0.00,VWS V14.01,2013-01-24 02:57:00,
2013-01-23 22:00:00,42.0,34.3,30.13,SSW,192,0.0,1.0,74,0.00,,SCT070,0.00,VWS V14.01,2013-01-24 03:00:00,
2013-01-23 22:07:00,40.5,33.2,30.15,SSW,192,0.0,0.0,75,0.00,,CLR,0.00,VWS V14.01,2013-01-24 03:07:00,
2013-01-23 22:12:00,40.7,33.4,30.15,SSW,193,0.0,0.0,75,0.00,,CLR,0.00,VWS V14.01,2013-01-24 03:12:00,
2013-01-23 22:15:00,42.1,34.1,30.13,SSW,193,0.0,0.0,73,0.00,,SCT070,0.00,VWS V14.01,2013-01-24 03:15:00,
2013-01-23 22:17:00,40.9,33.3,30.15,SSW,193,0.0,0.0,74,0.00,,CLR,0.00,VWS V14.01,2013-01-24 03:17:00,
2013-01-23 22:27:00,41.4,33.8,30.14,SSW,193,0.0,0.0,74,0.00,,CLR,0.00,VWS V14.01,2013-01-24 03:27:00,
2013-01-23 22:30:00,41.8,34.1,30.12,SSW,193,0.0,0.0,74,0.00,,SCT070,0.00,VWS V14.01,2013-01-24 03:30:00,
2013-01-23 22:32:00,41.5,33.8,30.14,SSW,193,0.0,0.0,74,0.00,,CLR,0.00,VWS V14.01,2013-01-24 03:32:00,
2013-01-23 22:37:00,41.6,33.9,30.14,SSW,192,0.0,0.0,74,0.00,,CLR,0.00,VWS V14.01,2013-01-24 03:37:00,
2013-01-23 22:45:00,41.8,34.1,30.14,SSW,192,0.0,0.0,74,0.00,,CLR,0.00,VWS V14.01,2013-01-24 03:45:00,
2013-01-23 22:52:00,41.9,34.2,30.13,SSW,193,0.0,0.0,74,0.00,,CLR,0.00,VWS V14.01,2013-01-24 03:52:00,
2013-01-23 22:57:00,42.0,34.0,30.13,SSW,193,0.0,1.0,73,0.00,,CLR,0.00,VWS V14.01,2013-01-24 03:57:00,
2013-01-23 23:00:00,41.5,34.2,30.12,West,264,0.0,1.0,75,0.00,,SCT070,0.00,VWS V14.01,2013-01-24 04:00:00,
2013-01-23 23:07:00,42.0,34.0,30.13,SSW,193,0.0,0.0,73,0.00,,CLR,0.00,VWS V14.01,2013-01-24 04:07:00,
2013-01-23 23:12:00,42.1,34.1,30.13,SSW,193,0.0,0.0,73,0.00,,CLR,0.00,VWS V14.01,2013-01-24 04:12:00,
2013-01-23 23:15:00,41.9,34.9,30.11,SSW,196,0.0,1.0,76,0.00,,SCT070,0.00,VWS V14.01,2013-01-24 04:15:00,
2013-01-23 23:17:00,42.1,34.1,30.13,SSW,193,0.0,0.0,73,0.00,,CLR,0.00,VWS V14.01,2013-01-24 04:17:00,
2013-01-23 23:27:00,41.9,33.9,30.13,SSW,193,0.0,0.0,73,0.00,,CLR,0.00,VWS V14.01,2013-01-24 04:27:00,
2013-01-23 23:30:00,43.0,35.6,30.10,West,279,0.0,2.0,75,0.00,,SCT070,0.00,VWS V14.01,2013-01-24 04:30:00,
2013-01-23 23:32:00,41.8,33.8,30.12,SSW,193,0.0,0.0,73,0.00,,CLR,0.00,VWS V14.01,2013-01-24 04:32:00,
2013-01-23 23:42:00,41.7,34.0,30.12,WSW,257,0.0,1.0,74,0.00,,CLR,0.00,VWS V14.01,2013-01-24 04:42:00,
2013-01-23 23:45:00,43.3,35.9,30.10,SW,236,0.0,2.0,75,0.00,,SCT070,0.00,VWS V14.01,2013-01-24 04:45:00,
2013-01-23 23:47:00,41.6,33.9,30.12,WSW,257,0.0,0.0,74,0.00,,CLR,0.00,VWS V14.01,2013-01-24 04:47:00,
2013-01-23 23:52:00,41.6,34.3,30.12,WSW,257,0.0,1.0,75,0.00,,CLR,0.00,VWS V14.01,2013-01-24 04:52:00,